sensor_id;sensor_type;location;lat;lon;timestamp;temperature;humidity
6986;DHT22;3533;51.246;6.850;2023-09-19T00:01:06;24.50;50.10
6986;DHT22;3533;51.246;6.850;2023-09-19T00:03:37;24.40;50.00
6986;DHT22;3533;51.246;6.850;2023-09-19T00:06:03;24.50;50.10
6986;DHT22;3533;51.246;6.850;2023-09-19T00:08:41;24.50;50.10
6986;DHT22;3533;51.246;6.850;2023-09-19T00:11:09;24.50;50.10
6986;DHT22;3533;51.246;6.850;2023-09-19T00:13:36;24.50;50.10
6986;DHT22;3533;51.246;6.850;2023-09-19T00:16:08;24.50;50.10
6986;DHT22;3533;51.246;6.850;2023-09-19T00:18:34;24.50;50.10
6986;DHT22;3533;51.246;6.850;2023-09-19T00:21:00;24.40;50.00
6986;DHT22;3533;51.246;6.850;2023-09-19T00:23:26;24.40;50.00
6986;DHT22;3533;51.246;6.850;2023-09-19T00:25:52;24.40;49.90
6986;DHT22;3533;51.246;6.850;2023-09-19T00:28:18;24.40;50.00
6986;DHT22;3533;51.246;6.850;2023-09-19T00:30:45;24.50;50.00
6986;DHT22;3533;51.246;6.850;2023-09-19T00:33:15;24.40;49.90
6986;DHT22;3533;51.246;6.850;2023-09-19T00:35:52;24.40;49.90
6986;DHT22;3533;51.246;6.850;2023-09-19T00:38:19;24.50;50.00
6986;DHT22;3533;51.246;6.850;2023-09-19T00:40:48;24.50;50.00
6986;DHT22;3533;51.246;6.850;2023-09-19T00:43:14;24.40;49.90
6986;DHT22;3533;51.246;6.850;2023-09-19T00:45:45;24.50;50.00
6986;DHT22;3533;51.246;6.850;2023-09-19T00:48:11;24.50;49.80
6986;DHT22;3533;51.246;6.850;2023-09-19T00:50:38;24.40;49.90
6986;DHT22;3533;51.246;6.850;2023-09-19T00:53:07;24.40;49.80
6986;DHT22;3533;51.246;6.850;2023-09-19T00:55:34;24.40;49.80
6986;DHT22;3533;51.246;6.850;2023-09-19T00:58:02;24.50;49.90
6986;DHT22;3533;51.246;6.850;2023-09-19T01:00:28;24.40;49.80
6986;DHT22;3533;51.246;6.850;2023-09-19T01:02:54;24.40;49.70
6986;DHT22;3533;51.246;6.850;2023-09-19T01:05:20;24.40;49.90
6986;DHT22;3533;51.246;6.850;2023-09-19T01:07:46;24.40;49.70
6986;DHT22;3533;51.246;6.850;2023-09-19T01:10:16;24.40;49.70
6986;DHT22;3533;51.246;6.850;2023-09-19T01:13:08;24.40;49.70
6986;DHT22;3533;51.246;6.850;2023-09-19T01:21:15;24.40;49.70
6986;DHT22;3533;51.246;6.850;2023-09-19T01:24:04;24.40;49.70
6986;DHT22;3533;51.246;6.850;2023-09-19T01:29:42;24.40;49.70
6986;DHT22;3533;51.246;6.850;2023-09-19T01:32:11;24.40;49.60
6986;DHT22;3533;51.246;6.850;2023-09-19T01:34:53;24.40;49.60
6986;DHT22;3533;51.246;6.850;2023-09-19T01:37:21;24.40;49.60
6986;DHT22;3533;51.246;6.850;2023-09-19T01:40:04;24.40;49.60
6986;DHT22;3533;51.246;6.850;2023-09-19T01:43:00;24.40;49.50
6986;DHT22;3533;51.246;6.850;2023-09-19T01:45:50;24.40;49.50
6986;DHT22;3533;51.246;6.850;2023-09-19T01:48:53;24.40;49.50
6986;DHT22;3533;51.246;6.850;2023-09-19T01:51:34;24.40;49.50
6986;DHT22;3533;51.246;6.850;2023-09-19T01:54:04;24.40;49.50
6986;DHT22;3533;51.246;6.850;2023-09-19T01:56:42;24.40;49.50
6986;DHT22;3533;51.246;6.850;2023-09-19T01:59:14;24.40;49.50
6986;DHT22;3533;51.246;6.850;2023-09-19T02:01:42;24.40;49.50
6986;DHT22;3533;51.246;6.850;2023-09-19T02:04:10;24.40;49.40
6986;DHT22;3533;51.246;6.850;2023-09-19T02:06:40;24.40;49.30
6986;DHT22;3533;51.246;6.850;2023-09-19T02:09:05;24.40;49.30
6986;DHT22;3533;51.246;6.850;2023-09-19T02:11:31;24.40;49.30
6986;DHT22;3533;51.246;6.850;2023-09-19T02:13:57;24.40;49.30
6986;DHT22;3533;51.246;6.850;2023-09-19T02:16:22;24.40;49.30
6986;DHT22;3533;51.246;6.850;2023-09-19T02:18:49;24.40;49.20
6986;DHT22;3533;51.246;6.850;2023-09-19T02:21:15;24.40;49.20
6986;DHT22;3533;51.246;6.850;2023-09-19T02:23:42;24.40;49.20
6986;DHT22;3533;51.246;6.850;2023-09-19T02:26:08;24.40;49.10
6986;DHT22;3533;51.246;6.850;2023-09-19T02:28:33;24.40;49.00
6986;DHT22;3533;51.246;6.850;2023-09-19T02:30:59;24.40;49.10
6986;DHT22;3533;51.246;6.850;2023-09-19T02:33:25;24.40;49.10
6986;DHT22;3533;51.246;6.850;2023-09-19T02:35:55;24.40;48.90
6986;DHT22;3533;51.246;6.850;2023-09-19T02:38:23;24.40;48.70
6986;DHT22;3533;51.246;6.850;2023-09-19T02:40:50;24.40;48.60
6986;DHT22;3533;51.246;6.850;2023-09-19T02:43:16;24.40;48.60
6986;DHT22;3533;51.246;6.850;2023-09-19T02:45:42;24.40;48.60
6986;DHT22;3533;51.246;6.850;2023-09-19T02:48:08;24.30;48.50
6986;DHT22;3533;51.246;6.850;2023-09-19T02:50:34;24.40;48.60
6986;DHT22;3533;51.246;6.850;2023-09-19T02:52:59;24.40;48.60
6986;DHT22;3533;51.246;6.850;2023-09-19T02:55:25;24.30;48.50
6986;DHT22;3533;51.246;6.850;2023-09-19T02:57:53;24.40;48.60
6986;DHT22;3533;51.246;6.850;2023-09-19T03:00:20;24.30;48.50
6986;DHT22;3533;51.246;6.850;2023-09-19T03:02:52;24.30;48.60
6986;DHT22;3533;51.246;6.850;2023-09-19T03:05:19;24.40;48.60
6986;DHT22;3533;51.246;6.850;2023-09-19T03:07:45;24.30;48.50
6986;DHT22;3533;51.246;6.850;2023-09-19T03:10:20;24.30;48.50
6986;DHT22;3533;51.246;6.850;2023-09-19T03:12:50;24.30;48.50
6986;DHT22;3533;51.246;6.850;2023-09-19T03:15:15;24.30;48.50
6986;DHT22;3533;51.246;6.850;2023-09-19T03:17:46;24.30;48.50
6986;DHT22;3533;51.246;6.850;2023-09-19T03:20:13;24.30;49.00
6986;DHT22;3533;51.246;6.850;2023-09-19T03:22:39;24.30;48.50
6986;DHT22;3533;51.246;6.850;2023-09-19T03:25:07;24.30;48.50
6986;DHT22;3533;51.246;6.850;2023-09-19T03:27:36;24.30;48.50
6986;DHT22;3533;51.246;6.850;2023-09-19T03:30:03;24.30;48.50
6986;DHT22;3533;51.246;6.850;2023-09-19T03:32:37;24.30;48.50
6986;DHT22;3533;51.246;6.850;2023-09-19T03:35:08;24.30;48.50
6986;DHT22;3533;51.246;6.850;2023-09-19T03:37:36;24.40;48.60
6986;DHT22;3533;51.246;6.850;2023-09-19T03:40:02;24.40;48.60
6986;DHT22;3533;51.246;6.850;2023-09-19T03:42:31;24.40;48.60
6986;DHT22;3533;51.246;6.850;2023-09-19T03:44:56;24.30;48.50
6986;DHT22;3533;51.246;6.850;2023-09-19T03:47:22;24.30;48.50
6986;DHT22;3533;51.246;6.850;2023-09-19T03:49:48;24.30;48.50
6986;DHT22;3533;51.246;6.850;2023-09-19T03:52:13;24.30;48.50
6986;DHT22;3533;51.246;6.850;2023-09-19T03:54:41;24.30;48.50
6986;DHT22;3533;51.246;6.850;2023-09-19T03:57:06;24.30;49.20
6986;DHT22;3533;51.246;6.850;2023-09-19T03:59:32;24.30;48.50
6986;DHT22;3533;51.246;6.850;2023-09-19T04:01:57;24.30;48.50
6986;DHT22;3533;51.246;6.850;2023-09-19T04:04:23;24.30;48.70
6986;DHT22;3533;51.246;6.850;2023-09-19T04:06:51;24.30;48.50
6986;DHT22;3533;51.246;6.850;2023-09-19T04:09:16;24.30;48.50
6986;DHT22;3533;51.246;6.850;2023-09-19T04:11:42;24.30;48.50
6986;DHT22;3533;51.246;6.850;2023-09-19T04:14:07;24.30;48.50
6986;DHT22;3533;51.246;6.850;2023-09-19T04:16:33;24.30;48.50
6986;DHT22;3533;51.246;6.850;2023-09-19T04:18:58;24.40;48.60
6986;DHT22;3533;51.246;6.850;2023-09-19T04:21:24;24.40;48.60
6986;DHT22;3533;51.246;6.850;2023-09-19T04:23:49;24.40;48.30
6986;DHT22;3533;51.246;6.850;2023-09-19T04:26:15;24.40;48.00
6986;DHT22;3533;51.246;6.850;2023-09-19T04:28:42;24.40;47.90
6986;DHT22;3533;51.246;6.850;2023-09-19T04:31:09;24.40;47.70
6986;DHT22;3533;51.246;6.850;2023-09-19T04:33:37;24.40;47.70
6986;DHT22;3533;51.246;6.850;2023-09-19T04:36:02;24.40;47.50
6986;DHT22;3533;51.246;6.850;2023-09-19T04:38:30;24.40;47.30
6986;DHT22;3533;51.246;6.850;2023-09-19T04:40:59;24.40;47.20
6986;DHT22;3533;51.246;6.850;2023-09-19T04:43:25;24.40;47.00
6986;DHT22;3533;51.246;6.850;2023-09-19T04:45:51;24.40;46.90
6986;DHT22;3533;51.246;6.850;2023-09-19T04:48:21;24.40;47.00
6986;DHT22;3533;51.246;6.850;2023-09-19T04:50:48;24.40;46.80
6986;DHT22;3533;51.246;6.850;2023-09-19T04:53:14;24.40;46.60
6986;DHT22;3533;51.246;6.850;2023-09-19T04:55:40;24.40;46.60
6986;DHT22;3533;51.246;6.850;2023-09-19T04:58:05;24.40;46.50
6986;DHT22;3533;51.246;6.850;2023-09-19T05:00:31;24.40;46.40
6986;DHT22;3533;51.246;6.850;2023-09-19T05:03:00;24.40;46.40
6986;DHT22;3533;51.246;6.850;2023-09-19T05:05:26;24.40;46.50
6986;DHT22;3533;51.246;6.850;2023-09-19T05:07:52;24.40;46.50
6986;DHT22;3533;51.246;6.850;2023-09-19T05:10:19;24.40;46.50
6986;DHT22;3533;51.246;6.850;2023-09-19T05:12:45;24.40;46.30
6986;DHT22;3533;51.246;6.850;2023-09-19T05:15:13;24.40;46.20
6986;DHT22;3533;51.246;6.850;2023-09-19T05:17:47;24.40;46.10
6986;DHT22;3533;51.246;6.850;2023-09-19T05:20:13;24.40;46.10
6986;DHT22;3533;51.246;6.850;2023-09-19T05:22:42;24.40;45.90
6986;DHT22;3533;51.246;6.850;2023-09-19T05:25:09;24.40;46.00
6986;DHT22;3533;51.246;6.850;2023-09-19T05:27:35;24.40;45.90
6986;DHT22;3533;51.246;6.850;2023-09-19T05:30:00;24.40;45.80
6986;DHT22;3533;51.246;6.850;2023-09-19T05:32:26;24.40;45.80
6986;DHT22;3533;51.246;6.850;2023-09-19T05:34:52;24.40;45.70
6986;DHT22;3533;51.246;6.850;2023-09-19T05:37:19;24.40;45.80
6986;DHT22;3533;51.246;6.850;2023-09-19T05:39:44;24.40;45.60
6986;DHT22;3533;51.246;6.850;2023-09-19T05:42:10;24.40;45.50
6986;DHT22;3533;51.246;6.850;2023-09-19T05:44:35;24.40;45.30
6986;DHT22;3533;51.246;6.850;2023-09-19T05:47:02;24.40;45.20
6986;DHT22;3533;51.246;6.850;2023-09-19T05:49:28;24.40;45.20
6986;DHT22;3533;51.246;6.850;2023-09-19T05:51:53;24.40;45.10
6986;DHT22;3533;51.246;6.850;2023-09-19T05:54:20;24.40;45.10
6986;DHT22;3533;51.246;6.850;2023-09-19T05:56:46;24.40;45.00
6986;DHT22;3533;51.246;6.850;2023-09-19T05:59:12;24.40;44.90
6986;DHT22;3533;51.246;6.850;2023-09-19T06:01:39;24.30;44.80
6986;DHT22;3533;51.246;6.850;2023-09-19T06:04:05;24.40;44.80
6986;DHT22;3533;51.246;6.850;2023-09-19T06:06:30;24.40;44.70
6986;DHT22;3533;51.246;6.850;2023-09-19T06:08:56;24.30;44.70
6986;DHT22;3533;51.246;6.850;2023-09-19T06:11:23;24.40;44.70
6986;DHT22;3533;51.246;6.850;2023-09-19T06:13:51;24.30;44.60
6986;DHT22;3533;51.246;6.850;2023-09-19T06:16:18;24.40;44.70
6986;DHT22;3533;51.246;6.850;2023-09-19T06:18:45;24.40;44.60
6986;DHT22;3533;51.246;6.850;2023-09-19T06:21:10;24.30;44.50
6986;DHT22;3533;51.246;6.850;2023-09-19T06:23:36;24.30;44.40
6986;DHT22;3533;51.246;6.850;2023-09-19T06:26:02;24.30;44.40
6986;DHT22;3533;51.246;6.850;2023-09-19T06:28:28;24.30;44.40
6986;DHT22;3533;51.246;6.850;2023-09-19T06:30:54;24.30;44.30
6986;DHT22;3533;51.246;6.850;2023-09-19T06:33:20;24.30;44.30
6986;DHT22;3533;51.246;6.850;2023-09-19T06:35:47;24.40;44.50
6986;DHT22;3533;51.246;6.850;2023-09-19T06:38:13;24.30;44.30
6986;DHT22;3533;51.246;6.850;2023-09-19T06:40:40;24.30;44.20
6986;DHT22;3533;51.246;6.850;2023-09-19T06:43:09;24.30;44.20
6986;DHT22;3533;51.246;6.850;2023-09-19T06:45:35;24.30;44.20
6986;DHT22;3533;51.246;6.850;2023-09-19T06:48:00;24.30;44.20
6986;DHT22;3533;51.246;6.850;2023-09-19T06:50:28;24.30;44.20
6986;DHT22;3533;51.246;6.850;2023-09-19T06:52:56;24.30;44.10
6986;DHT22;3533;51.246;6.850;2023-09-19T06:55:23;24.30;44.20
6986;DHT22;3533;51.246;6.850;2023-09-19T06:57:56;24.30;44.10
6986;DHT22;3533;51.246;6.850;2023-09-19T07:00:22;24.30;44.10
6986;DHT22;3533;51.246;6.850;2023-09-19T07:05:21;24.30;44.20
6986;DHT22;3533;51.246;6.850;2023-09-19T07:07:47;24.30;44.10
6986;DHT22;3533;51.246;6.850;2023-09-19T07:10:12;24.30;44.10
6986;DHT22;3533;51.246;6.850;2023-09-19T07:12:39;24.30;44.10
6986;DHT22;3533;51.246;6.850;2023-09-19T07:15:06;24.30;44.20
6986;DHT22;3533;51.246;6.850;2023-09-19T07:17:32;24.30;44.20
6986;DHT22;3533;51.246;6.850;2023-09-19T07:19:58;24.30;44.20
6986;DHT22;3533;51.246;6.850;2023-09-19T07:22:25;24.30;44.20
6986;DHT22;3533;51.246;6.850;2023-09-19T07:24:51;24.30;44.20
6986;DHT22;3533;51.246;6.850;2023-09-19T07:27:17;24.30;44.20
6986;DHT22;3533;51.246;6.850;2023-09-19T07:29:42;24.30;44.20
6986;DHT22;3533;51.246;6.850;2023-09-19T07:32:08;24.40;44.30
6986;DHT22;3533;51.246;6.850;2023-09-19T07:34:35;24.30;44.20
6986;DHT22;3533;51.246;6.850;2023-09-19T07:37:01;24.30;44.30
6986;DHT22;3533;51.246;6.850;2023-09-19T07:39:27;24.30;44.30
6986;DHT22;3533;51.246;6.850;2023-09-19T07:41:53;24.30;44.30
6986;DHT22;3533;51.246;6.850;2023-09-19T07:44:19;24.30;44.30
6986;DHT22;3533;51.246;6.850;2023-09-19T07:46:45;24.30;44.20
6986;DHT22;3533;51.246;6.850;2023-09-19T07:49:10;24.30;44.20
6986;DHT22;3533;51.246;6.850;2023-09-19T07:51:36;24.30;44.20
6986;DHT22;3533;51.246;6.850;2023-09-19T07:54:02;24.30;44.20
6986;DHT22;3533;51.246;6.850;2023-09-19T07:56:28;24.30;44.30
6986;DHT22;3533;51.246;6.850;2023-09-19T07:58:53;24.30;44.30
6986;DHT22;3533;51.246;6.850;2023-09-19T08:01:19;24.40;44.30
6986;DHT22;3533;51.246;6.850;2023-09-19T08:03:44;24.40;44.40
6986;DHT22;3533;51.246;6.850;2023-09-19T08:06:10;24.40;44.30
6986;DHT22;3533;51.246;6.850;2023-09-19T08:08:36;24.40;44.40
6986;DHT22;3533;51.246;6.850;2023-09-19T08:11:06;24.40;44.40
6986;DHT22;3533;51.246;6.850;2023-09-19T08:13:41;24.40;44.40
6986;DHT22;3533;51.246;6.850;2023-09-19T08:16:13;24.30;44.30
6986;DHT22;3533;51.246;6.850;2023-09-19T08:18:40;24.40;44.30
6986;DHT22;3533;51.246;6.850;2023-09-19T08:21:06;24.30;44.30
6986;DHT22;3533;51.246;6.850;2023-09-19T08:23:37;24.30;44.30
6986;DHT22;3533;51.246;6.850;2023-09-19T08:26:03;24.30;44.30
6986;DHT22;3533;51.246;6.850;2023-09-19T08:28:33;24.30;44.30
6986;DHT22;3533;51.246;6.850;2023-09-19T08:31:07;24.40;44.40
6986;DHT22;3533;51.246;6.850;2023-09-19T08:33:34;24.30;44.30
6986;DHT22;3533;51.246;6.850;2023-09-19T08:36:01;24.40;44.40
6986;DHT22;3533;51.246;6.850;2023-09-19T08:38:33;24.30;44.30
6986;DHT22;3533;51.246;6.850;2023-09-19T08:41:00;24.40;44.50
6986;DHT22;3533;51.246;6.850;2023-09-19T08:43:26;24.30;44.20
6986;DHT22;3533;51.246;6.850;2023-09-19T08:46:10;24.30;44.20
6986;DHT22;3533;51.246;6.850;2023-09-19T08:48:46;24.30;44.20
6986;DHT22;3533;51.246;6.850;2023-09-19T08:51:26;24.30;44.10
6986;DHT22;3533;51.246;6.850;2023-09-19T08:53:58;24.30;44.10
6986;DHT22;3533;51.246;6.850;2023-09-19T08:56:26;24.30;44.10
6986;DHT22;3533;51.246;6.850;2023-09-19T08:58:59;24.40;44.10
6986;DHT22;3533;51.246;6.850;2023-09-19T09:01:27;24.30;44.10
6986;DHT22;3533;51.246;6.850;2023-09-19T09:03:54;24.40;44.10
6986;DHT22;3533;51.246;6.850;2023-09-19T09:06:21;24.30;44.00
6986;DHT22;3533;51.246;6.850;2023-09-19T09:08:47;24.40;44.10
6986;DHT22;3533;51.246;6.850;2023-09-19T09:11:13;24.30;44.00
6986;DHT22;3533;51.246;6.850;2023-09-19T09:13:40;24.30;44.00
6986;DHT22;3533;51.246;6.850;2023-09-19T09:16:07;24.40;44.10
6986;DHT22;3533;51.246;6.850;2023-09-19T09:18:33;24.40;44.10
6986;DHT22;3533;51.246;6.850;2023-09-19T09:20:58;24.30;44.00
6986;DHT22;3533;51.246;6.850;2023-09-19T09:23:24;24.40;44.00
6986;DHT22;3533;51.246;6.850;2023-09-19T09:25:55;24.40;44.00
6986;DHT22;3533;51.246;6.850;2023-09-19T09:28:24;24.30;44.10
6986;DHT22;3533;51.246;6.850;2023-09-19T09:30:49;24.40;44.00
6986;DHT22;3533;51.246;6.850;2023-09-19T09:33:18;24.40;44.00
6986;DHT22;3533;51.246;6.850;2023-09-19T09:35:52;24.40;44.00
6986;DHT22;3533;51.246;6.850;2023-09-19T09:38:21;24.40;44.00
6986;DHT22;3533;51.246;6.850;2023-09-19T09:40:51;24.40;44.00
6986;DHT22;3533;51.246;6.850;2023-09-19T09:46:13;24.40;44.00
6986;DHT22;3533;51.246;6.850;2023-09-19T09:49:08;24.40;44.00
6986;DHT22;3533;51.246;6.850;2023-09-19T09:54:23;24.40;43.90
6986;DHT22;3533;51.246;6.850;2023-09-19T09:57:09;24.40;43.90
6986;DHT22;3533;51.246;6.850;2023-09-19T09:59:56;24.40;43.90
6986;DHT22;3533;51.246;6.850;2023-09-19T10:02:42;24.40;43.90
6986;DHT22;3533;51.246;6.850;2023-09-19T10:05:19;24.40;44.60
6986;DHT22;3533;51.246;6.850;2023-09-19T10:07:51;24.40;43.80
6986;DHT22;3533;51.246;6.850;2023-09-19T10:10:35;24.40;43.80
6986;DHT22;3533;51.246;6.850;2023-09-19T10:13:19;24.40;43.80
6986;DHT22;3533;51.246;6.850;2023-09-19T10:15:50;24.40;43.70
6986;DHT22;3533;51.246;6.850;2023-09-19T10:18:27;24.40;43.70
6986;DHT22;3533;51.246;6.850;2023-09-19T10:20:56;24.40;43.60
6986;DHT22;3533;51.246;6.850;2023-09-19T10:23:22;24.40;43.50
6986;DHT22;3533;51.246;6.850;2023-09-19T10:25:49;24.40;43.40
6986;DHT22;3533;51.246;6.850;2023-09-19T10:28:17;24.40;43.30
6986;DHT22;3533;51.246;6.850;2023-09-19T10:30:48;24.40;43.30
6986;DHT22;3533;51.246;6.850;2023-09-19T10:33:16;24.40;43.30
6986;DHT22;3533;51.246;6.850;2023-09-19T10:35:44;24.40;43.10
6986;DHT22;3533;51.246;6.850;2023-09-19T10:38:11;24.40;43.10
6986;DHT22;3533;51.246;6.850;2023-09-19T10:40:38;24.40;43.10
6986;DHT22;3533;51.246;6.850;2023-09-19T10:43:18;24.40;43.10
6986;DHT22;3533;51.246;6.850;2023-09-19T10:45:45;24.40;43.10
6986;DHT22;3533;51.246;6.850;2023-09-19T10:48:12;24.40;43.10
6986;DHT22;3533;51.246;6.850;2023-09-19T10:50:51;24.40;43.10
6986;DHT22;3533;51.246;6.850;2023-09-19T10:53:18;24.40;43.10
6986;DHT22;3533;51.246;6.850;2023-09-19T10:55:53;24.40;43.10
6986;DHT22;3533;51.246;6.850;2023-09-19T10:58:28;24.40;43.10
6986;DHT22;3533;51.246;6.850;2023-09-19T11:00:58;24.40;43.10
6986;DHT22;3533;51.246;6.850;2023-09-19T11:03:38;24.40;43.10
6986;DHT22;3533;51.246;6.850;2023-09-19T11:06:18;24.40;43.10
6986;DHT22;3533;51.246;6.850;2023-09-19T11:09:04;24.40;43.10
6986;DHT22;3533;51.246;6.850;2023-09-19T11:11:39;24.40;43.10
6986;DHT22;3533;51.246;6.850;2023-09-19T11:14:15;24.40;43.10
6986;DHT22;3533;51.246;6.850;2023-09-19T11:25:41;24.40;43.10
6986;DHT22;3533;51.246;6.850;2023-09-19T11:30:42;24.40;43.10
6986;DHT22;3533;51.246;6.850;2023-09-19T11:36:02;24.40;43.10
6986;DHT22;3533;51.246;6.850;2023-09-19T11:46:30;24.40;43.10
6986;DHT22;3533;51.246;6.850;2023-09-19T11:49:08;24.40;42.90
6986;DHT22;3533;51.246;6.850;2023-09-19T11:51:41;24.40;42.90
6986;DHT22;3533;51.246;6.850;2023-09-19T11:54:11;24.40;42.80
6986;DHT22;3533;51.246;6.850;2023-09-19T11:56:48;24.40;42.70
6986;DHT22;3533;51.246;6.850;2023-09-19T11:59:29;24.40;42.60
6986;DHT22;3533;51.246;6.850;2023-09-19T12:02:01;24.40;42.50
6986;DHT22;3533;51.246;6.850;2023-09-19T12:04:37;24.40;42.40
6986;DHT22;3533;51.246;6.850;2023-09-19T12:07:13;24.40;42.40
6986;DHT22;3533;51.246;6.850;2023-09-19T12:09:43;24.40;42.30
6986;DHT22;3533;51.246;6.850;2023-09-19T12:12:10;24.40;42.30
6986;DHT22;3533;51.246;6.850;2023-09-19T12:14:38;24.40;42.30
6986;DHT22;3533;51.246;6.850;2023-09-19T12:17:04;24.40;42.20
6986;DHT22;3533;51.246;6.850;2023-09-19T12:19:30;24.40;42.10
6986;DHT22;3533;51.246;6.850;2023-09-19T12:24:24;24.40;42.10
6986;DHT22;3533;51.246;6.850;2023-09-19T12:26:52;24.40;42.00
6986;DHT22;3533;51.246;6.850;2023-09-19T12:29:19;24.40;41.90
6986;DHT22;3533;51.246;6.850;2023-09-19T12:31:55;24.40;41.90
6986;DHT22;3533;51.246;6.850;2023-09-19T12:34:27;24.40;41.90
6986;DHT22;3533;51.246;6.850;2023-09-19T12:37:12;24.40;41.80
6986;DHT22;3533;51.246;6.850;2023-09-19T12:39:44;24.40;41.70
6986;DHT22;3533;51.246;6.850;2023-09-19T12:42:15;24.40;41.80
6986;DHT22;3533;51.246;6.850;2023-09-19T12:44:42;24.40;41.70
6986;DHT22;3533;51.246;6.850;2023-09-19T12:47:16;24.40;41.60
6986;DHT22;3533;51.246;6.850;2023-09-19T12:50:04;24.40;41.70
6986;DHT22;3533;51.246;6.850;2023-09-19T12:52:38;24.40;41.50
6986;DHT22;3533;51.246;6.850;2023-09-19T12:55:04;24.40;41.40
6986;DHT22;3533;51.246;6.850;2023-09-19T12:57:34;24.40;41.30
6986;DHT22;3533;51.246;6.850;2023-09-19T13:00:04;24.40;41.30
6986;DHT22;3533;51.246;6.850;2023-09-19T13:02:36;24.40;41.20
6986;DHT22;3533;51.246;6.850;2023-09-19T13:05:02;24.40;41.20
6986;DHT22;3533;51.246;6.850;2023-09-19T13:07:45;24.40;41.10
6986;DHT22;3533;51.246;6.850;2023-09-19T13:10:13;24.40;41.00
6986;DHT22;3533;51.246;6.850;2023-09-19T13:12:43;24.40;41.00
6986;DHT22;3533;51.246;6.850;2023-09-19T13:15:14;24.40;41.00
6986;DHT22;3533;51.246;6.850;2023-09-19T13:17:46;24.40;41.00
6986;DHT22;3533;51.246;6.850;2023-09-19T13:20:24;24.40;40.90
6986;DHT22;3533;51.246;6.850;2023-09-19T13:22:53;24.40;40.90
6986;DHT22;3533;51.246;6.850;2023-09-19T13:25:21;24.40;40.80
6986;DHT22;3533;51.246;6.850;2023-09-19T13:27:49;24.40;41.00
6986;DHT22;3533;51.246;6.850;2023-09-19T13:30:20;24.40;41.20
6986;DHT22;3533;51.246;6.850;2023-09-19T13:32:46;24.40;41.10
6986;DHT22;3533;51.246;6.850;2023-09-19T13:35:16;24.40;41.00
6986;DHT22;3533;51.246;6.850;2023-09-19T13:37:42;24.40;41.10
6986;DHT22;3533;51.246;6.850;2023-09-19T13:40:12;24.50;41.20
6986;DHT22;3533;51.246;6.850;2023-09-19T13:42:38;24.40;41.10
6986;DHT22;3533;51.246;6.850;2023-09-19T13:45:05;24.40;41.10
6986;DHT22;3533;51.246;6.850;2023-09-19T13:47:32;24.40;41.00
6986;DHT22;3533;51.246;6.850;2023-09-19T13:50:02;24.40;41.00
6986;DHT22;3533;51.246;6.850;2023-09-19T13:52:30;24.40;40.90
6986;DHT22;3533;51.246;6.850;2023-09-19T13:54:56;24.40;40.90
6986;DHT22;3533;51.246;6.850;2023-09-19T13:57:23;24.40;40.80
6986;DHT22;3533;51.246;6.850;2023-09-19T13:59:49;24.40;40.80
6986;DHT22;3533;51.246;6.850;2023-09-19T14:02:14;24.40;40.80
6986;DHT22;3533;51.246;6.850;2023-09-19T14:04:42;24.40;40.70
6986;DHT22;3533;51.246;6.850;2023-09-19T14:07:08;24.40;40.80
6986;DHT22;3533;51.246;6.850;2023-09-19T14:09:34;24.40;40.80
6986;DHT22;3533;51.246;6.850;2023-09-19T14:11:59;24.40;40.80
6986;DHT22;3533;51.246;6.850;2023-09-19T14:14:25;24.40;40.90
6986;DHT22;3533;51.246;6.850;2023-09-19T14:16:51;24.40;40.80
6986;DHT22;3533;51.246;6.850;2023-09-19T14:19:20;24.40;40.90
6986;DHT22;3533;51.246;6.850;2023-09-19T14:21:47;24.40;40.90
6986;DHT22;3533;51.246;6.850;2023-09-19T14:24:18;24.40;40.90
6986;DHT22;3533;51.246;6.850;2023-09-19T14:26:45;24.40;41.00
6986;DHT22;3533;51.246;6.850;2023-09-19T14:29:11;24.40;41.00
6986;DHT22;3533;51.246;6.850;2023-09-19T14:31:37;24.40;41.10
6986;DHT22;3533;51.246;6.850;2023-09-19T14:34:04;24.40;41.10
6986;DHT22;3533;51.246;6.850;2023-09-19T14:36:30;24.40;41.20
6986;DHT22;3533;51.246;6.850;2023-09-19T14:38:56;24.40;41.20
6986;DHT22;3533;51.246;6.850;2023-09-19T14:41:25;24.40;41.30
6986;DHT22;3533;51.246;6.850;2023-09-19T14:43:53;24.40;41.30
6986;DHT22;3533;51.246;6.850;2023-09-19T14:46:21;24.40;41.30
6986;DHT22;3533;51.246;6.850;2023-09-19T14:48:46;24.40;41.30
6986;DHT22;3533;51.246;6.850;2023-09-19T14:51:13;24.40;41.30
6986;DHT22;3533;51.246;6.850;2023-09-19T14:53:41;24.40;41.40
6986;DHT22;3533;51.246;6.850;2023-09-19T14:56:08;24.40;41.30
6986;DHT22;3533;51.246;6.850;2023-09-19T14:58:35;24.40;41.30
6986;DHT22;3533;51.246;6.850;2023-09-19T15:01:09;24.40;41.30
6986;DHT22;3533;51.246;6.850;2023-09-19T15:03:38;24.40;41.40
6986;DHT22;3533;51.246;6.850;2023-09-19T15:06:09;24.30;41.30
6986;DHT22;3533;51.246;6.850;2023-09-19T15:08:36;24.30;41.30
6986;DHT22;3533;51.246;6.850;2023-09-19T15:11:04;24.30;41.30
6986;DHT22;3533;51.246;6.850;2023-09-19T15:13:31;24.30;41.30
6986;DHT22;3533;51.246;6.850;2023-09-19T15:18:27;24.40;41.50
6986;DHT22;3533;51.246;6.850;2023-09-19T15:20:52;24.40;41.50
6986;DHT22;3533;51.246;6.850;2023-09-19T15:23:18;24.30;41.30
6986;DHT22;3533;51.246;6.850;2023-09-19T15:25:50;24.30;41.40
6986;DHT22;3533;51.246;6.850;2023-09-19T15:28:16;24.30;41.40
6986;DHT22;3533;51.246;6.850;2023-09-19T15:30:42;24.30;41.40
6986;DHT22;3533;51.246;6.850;2023-09-19T15:33:07;24.30;41.40
6986;DHT22;3533;51.246;6.850;2023-09-19T15:35:33;24.30;41.30
6986;DHT22;3533;51.246;6.850;2023-09-19T15:37:58;24.30;41.40
6986;DHT22;3533;51.246;6.850;2023-09-19T15:40:26;24.30;41.30
6986;DHT22;3533;51.246;6.850;2023-09-19T15:42:54;24.30;41.30
6986;DHT22;3533;51.246;6.850;2023-09-19T15:45:19;24.30;41.20
6986;DHT22;3533;51.246;6.850;2023-09-19T15:47:45;24.30;41.20
6986;DHT22;3533;51.246;6.850;2023-09-19T15:50:11;24.30;41.20
6986;DHT22;3533;51.246;6.850;2023-09-19T15:52:40;24.30;41.10
6986;DHT22;3533;51.246;6.850;2023-09-19T15:55:06;24.30;41.20
6986;DHT22;3533;51.246;6.850;2023-09-19T15:57:33;24.30;41.30
6986;DHT22;3533;51.246;6.850;2023-09-19T15:59:59;24.30;41.20
6986;DHT22;3533;51.246;6.850;2023-09-19T16:02:25;24.30;41.10
6986;DHT22;3533;51.246;6.850;2023-09-19T16:04:54;24.30;41.20
6986;DHT22;3533;51.246;6.850;2023-09-19T16:07:19;24.30;41.10
6986;DHT22;3533;51.246;6.850;2023-09-19T16:09:45;24.30;41.10
6986;DHT22;3533;51.246;6.850;2023-09-19T16:12:10;24.30;41.10
6986;DHT22;3533;51.246;6.850;2023-09-19T16:14:36;24.40;41.20
6986;DHT22;3533;51.246;6.850;2023-09-19T16:17:03;24.30;41.10
6986;DHT22;3533;51.246;6.850;2023-09-19T16:19:28;24.30;41.10
6986;DHT22;3533;51.246;6.850;2023-09-19T16:21:54;24.30;41.10
6986;DHT22;3533;51.246;6.850;2023-09-19T16:24:21;24.30;41.00
6986;DHT22;3533;51.246;6.850;2023-09-19T16:26:47;24.30;41.00
6986;DHT22;3533;51.246;6.850;2023-09-19T16:29:13;24.30;41.10
6986;DHT22;3533;51.246;6.850;2023-09-19T16:31:39;24.30;41.00
6986;DHT22;3533;51.246;6.850;2023-09-19T16:34:04;24.30;41.10
6986;DHT22;3533;51.246;6.850;2023-09-19T16:36:30;24.30;41.00
6986;DHT22;3533;51.246;6.850;2023-09-19T16:38:56;24.30;41.00
6986;DHT22;3533;51.246;6.850;2023-09-19T16:41:22;24.30;41.20
6986;DHT22;3533;51.246;6.850;2023-09-19T16:43:48;24.30;41.10
6986;DHT22;3533;51.246;6.850;2023-09-19T16:46:14;24.30;41.10
6986;DHT22;3533;51.246;6.850;2023-09-19T16:48:44;24.30;41.30
6986;DHT22;3533;51.246;6.850;2023-09-19T16:51:15;24.30;41.10
6986;DHT22;3533;51.246;6.850;2023-09-19T16:53:42;24.40;41.20
6986;DHT22;3533;51.246;6.850;2023-09-19T16:56:12;24.40;41.20